Time;durP1;ratioP1;P1;durP2;ratioP2;P2;SDS_P1;SDS_P2;PMS_P1;PMS_P2;Temp;Humidity;BMP_temperature;BMP_pressure;BME280_temperature;BME280_humidity;BME280_pressure;Samples;Min_cycle;Max_cycle;Signal;HPM_P1;HPM_P2
2022/04/13 00:01:07;;;;;;;9.18;4.78;;;12.60;95.40;;;;;;5028438;28;20124;-45
2022/04/13 00:03:32;;;;;;;7.97;4.82;;;12.60;95.50;;;;;;5028179;28;20126;-44
2022/04/13 00:05:58;;;;;;;6.13;5.00;;;12.60;95.50;;;;;;5028636;28;20045;-46
2022/04/13 00:08:24;;;;;;;7.28;4.65;;;12.90;95.60;;;;;;5028295;28;20513;-45
2022/04/13 00:10:49;;;;;;;8.70;5.00;;;12.60;95.70;;;;;;5028220;28;20038;-47
2022/04/13 00:13:15;;;;;;;9.30;5.40;;;12.50;95.60;;;;;;5027943;28;20041;-45
2022/04/13 00:15:41;;;;;;;9.80;5.10;;;12.40;95.80;;;;;;5028410;28;20048;-44
2022/04/13 00:18:08;;;;;;;8.88;5.15;;;12.40;95.90;;;;;;5028712;28;20084;-46
2022/04/13 00:20:34;;;;;;;8.68;5.30;;;12.20;96.10;;;;;;5028918;28;20129;-46
2022/04/13 00:23:00;;;;;;;11.25;5.20;;;12.10;96.30;;;;;;5029130;28;20056;-47
2022/04/13 00:25:26;;;;;;;5.97;4.53;;;12.10;96.60;;;;;;5028811;28;20389;-46
2022/04/13 00:27:51;;;;;;;7.45;5.10;;;12.00;96.90;;;;;;5029320;28;20033;-45
2022/04/13 00:30:17;;;;;;;9.40;4.93;;;11.90;97.10;;;;;;5028384;28;20694;-47
2022/04/13 00:32:43;;;;;;;8.07;6.07;;;11.80;97.40;;;;;;5029131;28;20249;-44
2022/04/13 00:35:09;;;;;;;7.53;6.05;;;11.80;97.90;;;;;;5029076;28;20041;-48
2022/04/13 00:37:38;;;;;;;12.85;5.95;;;11.50;98.20;;;;;;5029034;28;20041;-46
2022/04/13 00:40:05;;;;;;;8.23;6.35;;;11.70;98.50;;;;;;5028649;28;20531;-47
2022/04/13 00:42:30;;;;;;;11.45;5.90;;;11.70;98.50;;;;;;5028740;28;20102;-46
2022/04/13 00:44:56;;;;;;;7.50;5.22;;;11.60;98.80;;;;;;5028620;28;20427;-46
2022/04/13 00:47:22;;;;;;;8.93;6.40;;;11.60;99.20;;;;;;5028452;28;20049;-46
2022/04/13 00:49:48;;;;;;;13.10;6.70;;;12.20;99.90;;;;;;5029092;28;20588;-46
2022/04/13 00:52:15;;;;;;;9.32;5.90;;;11.40;99.90;;;;;;5028678;28;20093;-46
2022/04/13 00:54:45;;;;;;;9.18;6.65;;;11.50;99.90;;;;;;5028813;28;20060;-45
2022/04/13 00:57:12;;;;;;;11.15;6.40;;;11.10;99.90;;;;;;5026822;28;20060;-45
2022/04/13 00:59:39;;;;;;;9.85;5.60;;;11.10;99.90;;;;;;5028818;28;20399;-47
2022/04/13 01:02:07;;;;;;;12.77;6.30;;;10.90;99.90;;;;;;5028791;28;20040;-47
2022/04/13 01:04:34;;;;;;;11.23;5.78;;;10.90;99.90;;;;;;5028879;28;20369;-49
2022/04/13 01:07:02;;;;;;;10.80;5.80;;;11.00;99.90;;;;;;5028726;28;20041;-47
2022/04/13 01:09:30;;;;;;;7.72;5.25;;;11.00;99.90;;;;;;5028094;28;20442;-46
2022/04/13 01:11:55;;;;;;;8.63;5.90;;;11.00;99.90;;;;;;5027571;28;20045;-44
2022/04/13 01:14:21;;;;;;;12.07;6.13;;;11.50;99.90;;;;;;5027055;28;20041;-48
2022/04/13 01:16:47;;;;;;;11.63;5.93;;;11.00;99.90;;;;;;5027755;28;20549;-46
2022/04/13 01:19:16;;;;;;;10.85;6.03;;;11.10;99.90;;;;;;5027205;28;20045;-44
2022/04/13 01:21:53;;;;;;;7.88;6.22;;;10.80;99.90;;;;;;5026075;28;20098;-45
2022/04/13 01:24:21;;;;;;;10.38;6.07;;;10.50;99.90;;;;;;5028345;28;20083;-46
2022/04/13 01:26:47;;;;;;;8.68;6.10;;;10.90;99.90;;;;;;5027947;28;20491;-45
2022/04/13 01:29:13;;;;;;;9.77;6.40;;;10.80;99.90;;;;;;5027912;28;20369;-46
2022/04/13 01:31:40;;;;;;;10.82;6.57;;;10.70;99.90;;;;;;5028115;28;20056;-45
2022/04/13 01:34:06;;;;;;;13.48;6.75;;;11.00;99.90;;;;;;5027896;28;20045;-46
2022/04/13 01:36:36;;;;;;;9.50;6.07;;;10.80;99.90;;;;;;5027862;28;20077;-44
2022/04/13 01:39:06;;;;;;;11.35;6.70;;;10.80;99.90;;;;;;5028015;28;20080;-45
2022/04/13 01:41:33;;;;;;;8.88;7.00;;;10.80;99.90;;;;;;5027638;28;20103;-46
2022/04/13 01:43:58;;;;;;;10.07;6.22;;;11.60;99.90;;;;;;5027616;28;20087;-46
2022/04/13 01:46:24;;;;;;;8.63;6.53;;;10.80;99.90;;;;;;5027859;28;20046;-45
2022/04/13 01:48:50;;;;;;;11.77;6.45;;;10.50;99.90;;;;;;5027530;28;20057;-45
2022/04/13 01:51:20;;;;;;;12.13;7.28;;;10.50;99.90;;;;;;5027332;28;20057;-47
2022/04/13 01:53:50;;;;;;;10.45;6.65;;;10.40;99.90;;;;;;5027642;28;20478;-45
2022/04/13 01:56:16;;;;;;;10.18;6.80;;;10.50;99.90;;;;;;5026863;28;20037;-44
2022/04/13 01:58:42;;;;;;;11.45;6.95;;;10.80;99.90;;;;;;5027654;28;20037;-46
2022/04/13 02:01:08;;;;;;;9.48;6.88;;;10.70;99.90;;;;;;5027720;28;20491;-47
2022/04/13 02:03:33;;;;;;;10.18;7.40;;;10.50;99.90;;;;;;5027315;28;20084;-46
2022/04/13 02:05:59;;;;;;;11.93;7.95;;;10.50;99.90;;;;;;5027679;28;20613;-45
2022/04/13 02:08:26;;;;;;;14.57;7.43;;;10.40;99.90;;;;;;5027291;28;20038;-46
2022/04/13 02:10:52;;;;;;;9.77;7.00;;;10.50;99.90;;;;;;5025752;28;20045;-45
2022/04/13 02:13:22;;;;;;;11.40;6.97;;;10.50;99.90;;;;;;5027503;28;20064;-45
2022/04/13 02:15:48;;;;;;;11.52;8.27;;;10.40;99.90;;;;;;5026637;28;20077;-45
2022/04/13 02:18:15;;;;;;;9.77;6.72;;;10.50;99.90;;;;;;5026474;28;20041;-45
2022/04/13 02:20:40;;;;;;;13.27;7.03;;;10.90;99.90;;;;;;5025783;28;20059;-44
2022/04/13 02:23:06;;;;;;;20.30;7.85;;;10.40;99.90;;;;;;5027034;28;20116;-45
2022/04/13 02:25:34;;;;;;;13.35;8.18;;;10.40;99.90;;;;;;5027938;28;20045;-47
2022/04/13 02:28:01;;;;;;;13.15;7.53;;;10.40;99.90;;;;;;5031493;28;20045;-45
2022/04/13 02:30:27;;;;;;;12.30;7.80;;;10.30;99.90;;;;;;5030749;28;20399;-44
2022/04/13 02:32:52;;;;;;;10.82;7.68;;;10.10;99.90;;;;;;5031253;28;20041;-45
2022/04/13 02:35:18;;;;;;;14.70;9.15;;;10.30;99.90;;;;;;5031280;28;20128;-46
2022/04/13 02:37:44;;;;;;;11.27;8.13;;;10.30;99.90;;;;;;5030860;28;20052;-46
2022/04/13 02:40:10;;;;;;;11.52;7.93;;;11.10;99.90;;;;;;5031089;28;20045;-45
2022/04/13 02:42:36;;;;;;;11.13;7.78;;;10.20;99.90;;;;;;5030639;28;20045;-45
2022/04/13 02:45:04;;;;;;;10.23;8.07;;;11.00;99.90;;;;;;5030895;28;20041;-47
2022/04/13 02:47:32;;;;;;;13.13;8.75;;;10.10;99.90;;;;;;5030687;28;20080;-45
2022/04/13 02:49:58;;;;;;;10.80;8.25;;;9.90;99.90;;;;;;5030264;28;20104;-47
2022/04/13 02:52:28;;;;;;;13.02;8.73;;;9.60;99.90;;;;;;5030739;28;20085;-44
2022/04/13 02:54:54;;;;;;;12.98;8.63;;;9.90;99.90;;;;;;5029956;28;20043;-46
2022/04/13 02:57:20;;;;;;;13.25;9.02;;;10.00;99.90;;;;;;5030553;28;20056;-46
2022/04/13 02:59:46;;;;;;;11.90;8.52;;;9.90;99.90;;;;;;5030748;28;20037;-44
2022/04/13 03:02:19;;;;;;;13.98;9.45;;;10.80;99.90;;;;;;5030962;28;20439;-47
2022/04/13 03:04:46;;;;;;;17.48;9.35;;;8.30;99.90;;;;;;5030634;28;20876;-46
2022/04/13 03:07:14;;;;;;;15.15;9.35;;;9.90;99.90;;;;;;5030498;28;20049;-47
2022/04/13 03:09:39;;;;;;;15.32;9.88;;;10.10;99.90;;;;;;5030510;28;20517;-48
2022/04/13 03:12:06;;;;;;;14.10;8.90;;;9.80;99.90;;;;;;5030579;28;20042;-47
2022/04/13 03:14:33;;;;;;;13.32;8.65;;;9.80;99.90;;;;;;5029389;28;20047;-45
2022/04/13 03:16:58;;;;;;;13.63;8.82;;;9.80;99.90;;;;;;5030214;28;20045;-47
2022/04/13 03:19:24;;;;;;;15.27;10.30;;;9.70;99.90;;;;;;5030385;28;20053;-46
2022/04/13 03:21:53;;;;;;;17.77;9.50;;;10.50;99.90;;;;;;5028533;28;20061;-44
2022/04/13 03:24:19;;;;;;;16.15;10.52;;;9.60;99.90;;;;;;5029447;28;20399;-45
2022/04/13 03:26:45;;;;;;;11.93;9.15;;;9.60;99.90;;;;;;5029111;28;20403;-45
2022/04/13 03:29:10;;;;;;;17.00;10.25;;;9.60;99.90;;;;;;5029841;28;20037;-45
2022/04/13 03:31:36;;;;;;;15.40;9.80;;;10.20;99.90;;;;;;5030079;28;20037;-45
2022/04/13 03:34:02;;;;;;;13.52;10.20;;;9.50;99.90;;;;;;5029750;28;20069;-48
2022/04/13 03:36:28;;;;;;;17.02;10.50;;;9.90;99.90;;;;;;5029481;28;20127;-44
2022/04/13 03:38:54;;;;;;;15.57;10.10;;;9.70;99.90;;;;;;5029218;28;20079;-45
2022/04/13 03:41:19;;;;;;;13.70;10.32;;;9.50;99.90;;;;;;5030183;28;20345;-47
2022/04/13 03:43:45;;;;;;;16.92;11.60;;;9.50;99.90;;;;;;5029960;28;20147;-47
2022/04/13 03:46:11;;;;;;;16.08;10.98;;;10.40;99.90;;;;;;5029922;28;20049;-44
2022/04/13 03:48:37;;;;;;;15.93;10.57;;;9.50;99.90;;;;;;5029782;28;20038;-45
2022/04/13 03:51:03;;;;;;;18.27;11.02;;;9.70;99.90;;;;;;5029553;28;20495;-45
2022/04/13 03:53:29;;;;;;;17.40;11.60;;;9.70;99.90;;;;;;5029780;28;20056;-43
2022/04/13 03:55:55;;;;;;;20.63;12.13;;;9.80;99.90;;;;;;5029952;28;20046;-45
2022/04/13 03:58:21;;;;;;;16.45;10.95;;;10.90;99.90;;;;;;5029846;28;20049;-48
2022/04/13 04:00:46;;;;;;;18.67;11.60;;;10.10;99.90;;;;;;5029100;28;20466;-45
2022/04/13 04:03:12;;;;;;;20.00;10.50;;;10.10;99.90;;;;;;5028271;28;20053;-47
2022/04/13 04:05:38;;;;;;;17.83;12.27;;;10.40;99.90;;;;;;5029670;28;20037;-46
2022/04/13 04:08:04;;;;;;;18.70;11.23;;;10.80;99.90;;;;;;5029815;28;20067;-44
2022/04/13 04:10:30;;;;;;;19.45;12.18;;;10.50;99.90;;;;;;5029497;28;20050;-45
2022/04/13 04:12:55;;;;;;;21.77;12.38;;;10.50;99.90;;;;;;5029396;28;20079;-46
2022/04/13 04:15:22;;;;;;;22.13;12.82;;;10.70;99.90;;;;;;5029294;28;20128;-45
2022/04/13 04:17:48;;;;;;;18.33;11.75;;;10.70;99.90;;;;;;5028619;28;20053;-46
2022/04/13 04:20:13;;;;;;;18.55;12.23;;;10.70;99.90;;;;;;5028399;28;20700;-45
2022/04/13 04:22:40;;;;;;;19.98;13.45;;;10.80;99.90;;;;;;5028021;28;20045;-47
2022/04/13 04:25:08;;;;;;;24.13;13.25;;;11.00;99.90;;;;;;5028263;28;20068;-44
2022/04/13 04:27:34;;;;;;;20.95;12.45;;;11.00;99.90;;;;;;5028816;28;20048;-43
2022/04/13 04:30:01;;;;;;;18.00;12.52;;;11.00;99.90;;;;;;5028206;28;20483;-45
2022/04/13 04:32:27;;;;;;;26.33;13.55;;;10.80;99.90;;;;;;5028766;28;20069;-46
2022/04/13 04:34:52;;;;;;;19.20;12.60;;;11.00;99.90;;;;;;5028698;28;20503;-44
2022/04/13 04:37:18;;;;;;;20.95;12.20;;;10.80;99.90;;;;;;5029038;28;20045;-44
2022/04/13 04:39:44;;;;;;;24.77;12.98;;;11.00;99.90;;;;;;5027898;28;20064;-45
2022/04/13 04:42:10;;;;;;;20.83;12.30;;;11.40;99.90;;;;;;5028179;28;20375;-44
2022/04/13 04:44:36;;;;;;;19.92;14.13;;;11.00;99.90;;;;;;5027843;28;20049;-47
2022/04/13 04:47:02;;;;;;;22.98;12.85;;;11.00;99.90;;;;;;5027618;28;20459;-46
2022/04/13 04:49:28;;;;;;;27.95;13.25;;;10.90;99.90;;;;;;5027796;28;20084;-45
2022/04/13 04:51:54;;;;;;;19.85;13.80;;;10.90;99.90;;;;;;5027555;28;20085;-48
2022/04/13 04:54:19;;;;;;;22.38;14.10;;;11.40;99.90;;;;;;5028320;28;20045;-45
2022/04/13 04:56:45;;;;;;;21.33;13.20;;;10.90;99.90;;;;;;5028406;28;20040;-46
2022/04/13 04:59:11;;;;;;;20.25;12.73;;;10.90;99.90;;;;;;5028447;28;20068;-46
2022/04/13 05:01:36;;;;;;;21.65;13.15;;;10.80;99.90;;;;;;5028103;28;20041;-45
2022/04/13 05:04:02;;;;;;;24.15;13.38;;;11.50;99.90;;;;;;5028072;28;20037;-46
2022/04/13 05:06:29;;;;;;;27.98;13.13;;;10.80;99.90;;;;;;5028145;28;20112;-46
2022/04/13 05:08:55;;;;;;;19.27;12.75;;;10.80;99.90;;;;;;5027860;28;20053;-46
2022/04/13 05:11:22;;;;;;;18.02;12.10;;;10.80;99.90;;;;;;5028662;28;20091;-49
2022/04/13 05:13:48;;;;;;;20.02;12.88;;;10.70;99.90;;;;;;5027966;28;20123;-45
2022/04/13 05:16:15;;;;;;;21.45;12.70;;;10.70;99.90;;;;;;5028191;28;20050;-46
2022/04/13 05:18:42;;;;;;;22.05;13.07;;;11.90;99.90;;;;;;5027044;28;20077;-45
2022/04/13 05:21:08;;;;;;;22.00;12.32;;;11.20;99.90;;;;;;5028487;28;20041;-46
2022/04/13 05:23:35;;;;;;;16.85;12.48;;;10.80;99.90;;;;;;5026275;28;20394;-46
2022/04/13 05:26:01;;;;;;;19.17;12.55;;;10.70;99.90;;;;;;5028123;28;20377;-44
2022/04/13 05:28:28;;;;;;;20.17;13.18;;;11.20;99.90;;;;;;5026629;28;20056;-44
2022/04/13 05:30:54;;;;;;;19.13;12.93;;;10.90;99.90;;;;;;5026687;28;20526;-46
2022/04/13 05:33:20;;;;;;;24.52;12.20;;;10.90;99.90;;;;;;5027350;28;20052;-45
2022/04/13 05:35:46;;;;;;;19.33;12.55;;;11.00;99.90;;;;;;5027626;28;20049;-46
2022/04/13 05:38:11;;;;;;;19.17;13.05;;;11.00;99.90;;;;;;5028174;28;20045;-48
2022/04/13 05:40:37;;;;;;;24.92;14.23;;;11.20;99.90;;;;;;5028005;28;20530;-46
2022/04/13 05:43:03;;;;;;;17.77;12.07;;;11.30;99.90;;;;;;5027961;28;20049;-46
2022/04/13 05:45:29;;;;;;;15.82;12.40;;;11.50;99.90;;;;;;5028016;28;20049;-45
2022/04/13 05:47:54;;;;;;;21.48;13.60;;;11.70;99.90;;;;;;5027305;28;20399;-45
2022/04/13 05:50:20;;;;;;;19.17;11.98;;;11.70;99.90;;;;;;5027554;28;20475;-49
2022/04/13 05:52:46;;;;;;;16.92;11.90;;;12.20;99.90;;;;;;5027696;28;20428;-45
2022/04/13 05:55:12;;;;;;;18.38;12.10;;;12.30;99.90;;;;;;5026771;28;20049;-47
2022/04/13 05:57:38;;;;;;;18.60;11.30;;;12.20;99.90;;;;;;5027748;28;20037;-48
2022/04/13 06:00:05;;;;;;;20.77;12.70;;;12.40;99.90;;;;;;5027071;28;20805;-45
2022/04/13 06:02:31;;;;;;;18.33;12.13;;;12.50;99.90;;;;;;5027648;28;20052;-49
2022/04/13 06:04:56;;;;;;;18.50;12.30;;;12.60;99.90;;;;;;5027415;28;20400;-49
2022/04/13 06:07:22;;;;;;;18.05;12.57;;;12.80;99.90;;;;;;5027640;28;20064;-48
2022/04/13 06:09:47;;;;;;;19.50;13.10;;;12.70;99.90;;;;;;5027451;28;20041;-48
2022/04/13 06:12:23;;;;;;;19.05;12.90;;;12.80;99.90;;;;;;5027136;28;20049;-46
2022/04/13 06:14:49;;;;;;;16.10;12.05;;;12.70;99.90;;;;;;5027685;28;20052;-51
2022/04/13 06:17:16;;;;;;;21.65;14.73;;;12.80;99.90;;;;;;5027837;28;20693;-51
2022/04/13 06:19:42;;;;;;;20.38;13.38;;;13.00;99.90;;;;;;5027505;28;20710;-50
2022/04/13 06:22:08;;;;;;;23.17;12.13;;;13.20;99.90;;;;;;5027189;28;20045;-46
2022/04/13 06:24:34;;;;;;;20.17;12.75;;;13.20;99.90;;;;;;5026841;28;20048;-47
2022/04/13 06:27:00;;;;;;;19.50;12.93;;;13.20;99.90;;;;;;5027423;28;20125;-50
2022/04/13 06:29:25;;;;;;;20.95;13.57;;;13.30;99.90;;;;;;5026488;28;20507;-45
2022/04/13 06:31:51;;;;;;;21.98;13.98;;;13.50;99.90;;;;;;5026940;28;20053;-45
2022/04/13 06:34:16;;;;;;;18.75;11.82;;;14.20;99.90;;;;;;5027384;28;20049;-46
2022/04/13 06:36:43;;;;;;;20.80;11.98;;;15.00;99.90;;;;;;5027541;28;20077;-46
2022/04/13 06:39:09;;;;;;;18.67;11.35;;;15.80;99.90;;;;;;5026943;28;20045;-46
2022/04/13 06:41:35;;;;;;;19.00;10.75;;;16.40;99.90;;;;;;5027306;28;20049;-45
2022/04/13 06:44:01;;;;;;;19.30;11.95;;;17.00;99.90;;;;;;5026768;28;20038;-48
2022/04/13 06:46:27;;;;;;;19.27;11.77;;;17.60;99.90;;;;;;5026969;28;20045;-48
2022/04/13 06:48:53;;;;;;;17.63;11.48;;;17.90;99.90;;;;;;5027447;28;20053;-47
2022/04/13 06:51:19;;;;;;;19.48;12.55;;;18.10;99.90;;;;;;5026338;28;20857;-47
2022/04/13 06:53:44;;;;;;;20.55;11.88;;;18.60;99.80;;;;;;5026563;28;20085;-48
2022/04/13 06:56:10;;;;;;;16.40;11.05;;;19.40;98.30;;;;;;5026991;28;20033;-49
2022/04/13 06:58:36;;;;;;;23.83;11.75;;;20.00;96.60;;;;;;5027345;28;20057;-48
2022/04/13 07:01:01;;;;;;;16.38;10.32;;;20.10;95.60;;;;;;5027019;28;20132;-46
2022/04/13 07:03:27;;;;;;;20.45;10.48;;;20.30;94.60;;;;;;5026703;28;20045;-45
2022/04/13 07:05:53;;;;;;;16.00;9.80;;;20.30;93.90;;;;;;5025848;28;20494;-45
2022/04/13 07:08:18;;;;;;;15.57;9.68;;;21.70;93.20;;;;;;5025720;28;20466;-45
2022/04/13 07:10:44;;;;;;;16.23;9.07;;;19.70;92.20;;;;;;5026140;28;20052;-47
2022/04/13 07:13:14;;;;;;;16.15;8.75;;;19.70;92.30;;;;;;5027755;28;20082;-47
2022/04/13 07:15:40;;;;;;;11.02;7.47;;;19.70;92.50;;;;;;5030896;28;20219;-47
2022/04/13 07:18:06;;;;;;;15.18;7.75;;;19.60;92.20;;;;;;5029954;28;20128;-45
2022/04/13 07:20:32;;;;;;;16.40;7.47;;;19.40;92.20;;;;;;5029800;28;20124;-45
2022/04/13 07:22:58;;;;;;;11.82;6.93;;;19.10;92.10;;;;;;5029867;28;20487;-45
2022/04/13 07:25:24;;;;;;;14.38;7.72;;;18.80;92.10;;;;;;5029564;28;20069;-48
2022/04/13 07:27:50;;;;;;;16.02;7.55;;;18.60;92.20;;;;;;5030256;28;20090;-45
2022/04/13 07:30:16;;;;;;;11.55;7.60;;;18.40;92.80;;;;;;5029961;28;20747;-47
2022/04/13 07:32:46;;;;;;;14.38;7.28;;;18.30;93.00;;;;;;5029711;28;20112;-48
2022/04/13 07:35:12;;;;;;;12.77;7.35;;;18.10;93.40;;;;;;5029643;28;20057;-46
2022/04/13 07:37:42;;;;;;;12.35;7.45;;;18.00;93.60;;;;;;5030244;28;20045;-45
2022/04/13 07:40:12;;;;;;;13.18;7.80;;;18.00;94.00;;;;;;5029742;28;20110;-46
2022/04/13 07:42:38;;;;;;;13.13;7.38;;;18.00;93.80;;;;;;5030124;28;20038;-45
2022/04/13 07:45:05;;;;;;;12.73;7.20;;;17.90;94.00;;;;;;5029759;28;20076;-47
2022/04/13 07:47:31;;;;;;;14.55;9.13;;;18.00;94.50;;;;;;5029311;28;20129;-46
2022/04/13 07:49:58;;;;;;;14.38;8.75;;;18.10;94.60;;;;;;5028857;28;20041;-44
2022/04/13 07:52:24;;;;;;;16.50;8.60;;;18.50;94.60;;;;;;5028818;28;20037;-45
2022/04/13 07:54:50;;;;;;;14.65;7.90;;;19.20;93.90;;;;;;5029671;28;20045;-46
2022/04/13 07:57:15;;;;;;;15.32;7.63;;;19.70;93.40;;;;;;5029582;28;20095;-48
2022/04/13 07:59:42;;;;;;;13.73;7.43;;;19.90;92.40;;;;;;5029471;28;20124;-45
2022/04/13 08:02:08;;;;;;;12.50;7.15;;;19.80;91.70;;;;;;5028890;28;20061;-46
2022/04/13 08:04:34;;;;;;;11.50;6.90;;;19.50;91.00;;;;;;5029638;28;20064;-47
2022/04/13 08:07:00;;;;;;;13.75;7.22;;;19.10;91.30;;;;;;5028021;28;20053;-37
2022/04/13 08:09:26;;;;;;;18.15;8.30;;;18.70;91.80;;;;;;5023999;28;20045;-38
2022/04/13 08:11:53;;;;;;;13.35;7.72;;;18.50;92.50;;;;;;5025482;28;20045;-37
2022/04/13 08:14:23;;;;;;;16.80;8.13;;;18.20;92.80;;;;;;5028645;28;20096;-37
2022/04/13 08:16:49;;;;;;;13.00;7.82;;;18.10;93.50;;;;;;5028760;28;20345;-38
2022/04/13 08:19:15;;;;;;;11.20;7.80;;;18.10;93.90;;;;;;5028478;28;20064;-37
2022/04/13 08:21:41;;;;;;;17.77;8.40;;;18.00;94.30;;;;;;5028831;28;20484;-38
2022/04/13 08:24:07;;;;;;;11.63;8.52;;;17.90;94.30;;;;;;5028011;28;20099;-37
2022/04/13 08:26:33;;;;;;;14.50;8.40;;;17.80;94.50;;;;;;5028496;28;20527;-36
2022/04/13 08:28:59;;;;;;;16.63;7.90;;;17.90;94.80;;;;;;5028577;28;20111;-36
2022/04/13 08:31:25;;;;;;;12.63;7.78;;;18.10;94.90;;;;;;5028331;28;20687;-38
2022/04/13 08:33:50;;;;;;;15.07;6.68;;;18.50;94.70;;;;;;5028652;28;20041;-36
2022/04/13 08:36:16;;;;;;;9.43;6.25;;;18.60;94.10;;;;;;5028406;28;20037;-35
2022/04/13 08:38:42;;;;;;;13.35;6.68;;;18.40;93.50;;;;;;5029116;28;20047;-37
2022/04/13 08:41:31;;;;;;;13.48;7.70;;;18.30;93.20;;;;;;5028979;28;20055;-37
2022/04/13 08:44:11;;;;;;;12.02;7.32;;;18.10;93.40;;;;;;5028262;28;20049;-37
2022/04/13 08:46:40;;;;;;;10.38;6.85;;;18.00;93.70;;;;;;5028079;28;20080;-36
2022/04/13 08:49:08;;;;;;;12.07;7.47;;;17.80;94.00;;;;;;5028233;28;20038;-37
2022/04/13 08:51:35;;;;;;;9.85;7.00;;;17.60;94.10;;;;;;5027348;28;20107;-38
2022/04/13 08:54:20;;;;;;;12.00;6.63;;;17.80;94.70;;;;;;5026412;28;20059;-38
2022/04/13 08:56:53;;;;;;;9.70;6.43;;;18.50;94.70;;;;;;5026968;28;20045;-39
2022/04/13 08:59:30;;;;;;;12.18;7.05;;;20.00;93.60;;;;;;5027693;28;20044;-38
2022/04/13 09:02:25;;;;;;;17.55;7.10;;;21.50;91.60;;;;;;5028253;28;20069;-38
2022/04/13 09:04:56;;;;;;;12.88;6.15;;;22.40;88.10;;;;;;5028106;28;20045;-45
2022/04/13 09:07:26;;;;;;;11.13;6.28;;;22.40;84.90;;;;;;5026713;28;20060;-47
2022/04/13 09:09:56;;;;;;;12.10;5.82;;;22.50;84.30;;;;;;5028397;28;20068;-47
2022/04/13 09:12:22;;;;;;;12.88;5.70;;;23.00;83.20;;;;;;5027734;28;20045;-45
2022/04/13 09:14:48;;;;;;;10.23;5.40;;;23.10;81.10;;;;;;5027838;28;20053;-45
2022/04/13 09:17:14;;;;;;;8.93;4.95;;;23.00;80.00;;;;;;5027699;28;20068;-45
2022/04/13 09:19:40;;;;;;;11.27;6.55;;;23.00;79.90;;;;;;5028149;28;20042;-45
2022/04/13 09:22:08;;;;;;;8.85;4.35;;;23.30;79.40;;;;;;5028170;28;20053;-44
2022/04/13 09:24:37;;;;;;;15.75;4.63;;;23.60;78.60;;;;;;5027852;28;20742;-46
2022/04/13 09:27:04;;;;;;;9.95;4.82;;;24.40;77.90;;;;;;5027818;28;20567;-46
2022/04/13 09:29:30;;;;;;;10.10;4.38;;;25.00;76.10;;;;;;5028236;28;20056;-45
2022/04/13 09:31:55;;;;;;;7.82;4.05;;;25.50;74.60;;;;;;5027878;28;20041;-45
2022/04/13 09:34:21;;;;;;;6.78;3.40;;;26.00;73.10;;;;;;5027775;28;20041;-44
2022/04/13 09:36:48;;;;;;;7.25;3.28;;;26.40;77.30;;;;;;5027166;28;20044;-48
2022/04/13 09:39:15;;;;;;;9.63;4.28;;;26.90;70.10;;;;;;5027602;28;20077;-46
2022/04/13 09:41:41;;;;;;;11.50;4.88;;;27.20;74.10;;;;;;5028203;28;20048;-46
2022/04/13 09:44:18;;;;;;;6.65;4.18;;;27.50;67.20;;;;;;5027732;28;20049;-47
2022/04/13 09:46:44;;;;;;;6.70;3.50;;;27.80;68.90;;;;;;5027820;28;20057;-46
2022/04/13 09:49:12;;;;;;;8.43;3.50;;;27.80;65.10;;;;;;5027789;28;20503;-46
2022/04/13 09:51:39;;;;;;;6.82;3.78;;;27.50;65.40;;;;;;5027387;28;20124;-46
2022/04/13 09:54:09;;;;;;;11.75;4.30;;;27.20;65.70;;;;;;5028110;28;20091;-45
2022/04/13 09:56:47;;;;;;;6.22;3.45;;;26.90;66.00;;;;;;5027746;28;20095;-46
2022/04/13 09:59:30;;;;;;;7.60;3.92;;;26.60;65.10;;;;;;5027597;28;20080;-47
2022/04/13 10:01:57;;;;;;;5.93;3.30;;;26.30;65.80;;;;;;5027419;28;20567;-47
2022/04/13 10:04:31;;;;;;;8.85;3.10;;;26.00;66.50;;;;;;5025693;28;20052;-48
2022/04/13 10:07:25;;;;;;;8.70;3.70;;;25.60;64.90;;;;;;5027414;28;20443;-45
2022/04/13 10:09:51;;;;;;;7.10;2.72;;;25.10;68.40;;;;;;5018415;28;20051;-47
2022/04/13 10:12:17;;;;;;;11.25;2.85;;;25.10;69.00;;;;;;5027337;28;20037;-45
2022/04/13 10:14:43;;;;;;;6.43;2.65;;;25.50;68.50;;;;;;5027443;28;20041;-46
2022/04/13 10:17:15;;;;;;;5.38;2.50;;;26.10;68.30;;;;;;5027625;28;20038;-45
2022/04/13 10:19:42;;;;;;;5.85;2.83;;;26.30;66.80;;;;;;5027094;28;20046;-47
2022/04/13 10:22:09;;;;;;;6.72;2.92;;;26.80;66.20;;;;;;5027151;28;20351;-49
2022/04/13 10:24:39;;;;;;;8.90;6.20;;;27.20;65.00;;;;;;5026167;28;20050;-46
2022/04/13 10:27:16;;;;;;;3.58;1.65;;;27.40;64.30;;;;;;5026871;28;20440;-46
2022/04/13 10:29:44;;;;;;;3.35;0.90;;;27.60;62.40;;;;;;5026876;28;20063;-46
2022/04/13 10:32:23;;;;;;;3.70;1.30;;;27.20;61.60;;;;;;5027018;28;20128;-46
2022/04/13 10:34:51;;;;;;;6.15;1.67;;;27.00;61.70;;;;;;5025624;28;20045;-46
2022/04/13 10:37:20;;;;;;;4.03;1.30;;;26.60;63.70;;;;;;5027308;28;20038;-45
2022/04/13 10:39:47;;;;;;;4.00;1.23;;;26.10;61.60;;;;;;5026983;28;20440;-48
2022/04/13 10:42:15;;;;;;;5.90;1.90;;;26.30;61.90;;;;;;5027132;28;20037;-45
2022/04/13 10:45:02;;;;;;;4.45;2.13;;;26.00;61.40;;;;;;5026441;28;20049;-48
2022/04/13 10:48:07;;;;;;;4.30;1.77;;;25.00;61.80;;;;;;5028627;28;20179;-46
2022/04/13 10:50:54;;;;;;;4.88;1.92;;;23.90;64.00;;;;;;5028878;28;20096;-46
2022/04/13 10:53:28;;;;;;;6.20;2.03;;;23.20;65.80;;;;;;5031132;28;20037;-45
2022/04/13 10:56:05;;;;;;;6.32;1.33;;;22.90;69.20;;;;;;5031061;28;20128;-45
2022/04/13 10:58:49;;;;;;;3.28;1.30;;;22.60;70.00;;;;;;5030549;28;20045;-44
2022/04/13 11:01:18;;;;;;;4.50;1.27;;;22.30;70.10;;;;;;5030747;28;20060;-47
2022/04/13 11:03:44;;;;;;;8.02;1.83;;;22.00;70.40;;;;;;5030287;28;20049;-48
2022/04/13 11:06:11;;;;;;;4.25;2.13;;;21.80;71.20;;;;;;5030767;28;20043;-48
2022/04/13 11:09:03;;;;;;;5.70;1.73;;;21.70;71.60;;;;;;5029970;28;20100;-44
2022/04/13 11:11:29;;;;;;;7.28;1.92;;;21.70;72.90;;;;;;5030298;28;20033;-45
2022/04/13 11:13:55;;;;;;;6.40;2.00;;;21.70;72.80;;;;;;5030301;28;20120;-48
2022/04/13 11:16:23;;;;;;;5.15;1.77;;;21.80;72.70;;;;;;5029142;28;20175;-47
2022/04/13 11:19:01;;;;;;;6.03;1.85;;;22.00;72.90;;;;;;5030255;28;20049;-47
2022/04/13 11:21:28;;;;;;;5.78;2.03;;;22.10;72.70;;;;;;5030022;28;20064;-44
2022/04/13 11:23:54;;;;;;;4.63;1.50;;;21.90;72.80;;;;;;5030252;28;20053;-46
2022/04/13 11:26:43;;;;;;;6.82;2.03;;;21.70;73.00;;;;;;5029730;28;20041;-46
2022/04/13 11:29:18;;;;;;;7.05;2.25;;;21.40;74.00;;;;;;5024230;28;20419;-46
2022/04/13 11:31:59;;;;;;;5.07;2.40;;;21.00;74.90;;;;;;5028453;28;20057;-45
2022/04/13 11:34:46;;;;;;;8.65;2.65;;;20.80;75.70;;;;;;5030066;28;20076;-46
2022/04/13 11:37:16;;;;;;;5.57;2.05;;;20.60;76.30;;;;;;5029536;28;20412;-46
2022/04/13 11:39:45;;;;;;;6.93;1.90;;;20.40;77.00;;;;;;5029328;28;20428;-47
2022/04/13 11:42:26;;;;;;;5.13;2.40;;;20.30;77.20;;;;;;5029803;28;20740;-44
2022/04/13 11:45:04;;;;;;;6.25;2.50;;;20.30;77.90;;;;;;5029668;28;20044;-46
2022/04/13 11:47:36;;;;;;;4.80;2.20;;;20.20;78.60;;;;;;5029631;28;20046;-45
2022/04/13 11:50:18;;;;;;;4.53;2.88;;;20.10;78.70;;;;;;5029314;28;20045;-44
2022/04/13 11:53:04;;;;;;;5.57;2.47;;;20.00;79.10;;;;;;5029736;28;20045;-48
2022/04/13 11:55:35;;;;;;;9.00;2.85;;;19.90;79.20;;;;;;5029558;28;20129;-44
2022/04/13 11:58:09;;;;;;;7.63;2.63;;;19.80;79.60;;;;;;5029103;28;20098;-45
2022/04/13 12:00:45;;;;;;;6.70;3.25;;;19.70;79.80;;;;;;5029356;28;20529;-45
2022/04/13 12:03:18;;;;;;;4.90;2.08;;;19.70;80.00;;;;;;5029249;28;20053;-49
2022/04/13 12:05:48;;;;;;;5.32;2.00;;;19.60;80.00;;;;;;5028961;28;20563;-45
2022/04/13 12:08:25;;;;;;;5.13;1.30;;;19.40;80.60;;;;;;5028675;28;20068;-48
2022/04/13 12:10:58;;;;;;;6.22;1.98;;;19.30;80.40;;;;;;5028689;28;20460;-45
2022/04/13 12:13:25;;;;;;;3.85;1.05;;;19.20;80.40;;;;;;5029327;28;20049;-45
2022/04/13 12:15:53;;;;;;;4.32;1.02;;;19.10;80.00;;;;;;5028801;28;20048;-46
2022/04/13 12:18:21;;;;;;;3.55;1.33;;;19.10;79.30;;;;;;5028804;28;20535;-46
2022/04/13 12:20:48;;;;;;;6.50;1.90;;;19.20;79.70;;;;;;5028861;28;20041;-45
2022/04/13 12:23:26;;;;;;;6.68;1.92;;;19.20;79.50;;;;;;5028909;28;20049;-46
2022/04/13 12:25:56;;;;;;;5.38;1.60;;;19.50;80.30;;;;;;5029115;28;20041;-44
2022/04/13 12:28:23;;;;;;;2.90;1.30;;;19.50;79.60;;;;;;5029256;28;20052;-44
2022/04/13 12:31:17;;;;;;;4.82;1.63;;;19.60;79.00;;;;;;5028949;28;20037;-44
2022/04/13 12:33:43;;;;;;;6.20;1.45;;;19.70;78.60;;;;;;5027560;28;20042;-46
2022/04/13 12:36:14;;;;;;;4.57;1.10;;;20.00;78.40;;;;;;5029206;28;20045;-48
2022/04/13 12:38:46;;;;;;;4.10;1.23;;;20.00;77.70;;;;;;5028854;28;20049;-45
2022/04/13 12:41:19;;;;;;;4.25;0.90;;;20.00;77.60;;;;;;5028838;28;20474;-45
2022/04/13 12:43:59;;;;;;;8.85;2.13;;;19.90;78.30;;;;;;5028303;28;20041;-47